Time;durP1;ratioP1;P1;durP2;ratioP2;P2;SDS_P1;SDS_P2;PMS_P1;PMS_P2;Temp;Humidity;BMP_temperature;BMP_pressure;BME280_temperature;BME280_humidity;BME280_pressure;Samples;Min_cycle;Max_cycle;Signal;HPM_P1;HPM_P2
2022/07/05 00:00:49;;;;;;;12.50;11.40;;;;;;;;;;108523;1256;33897;-41
2022/07/05 00:03:22;;;;;;;11.90;10.90;;;;;;;;;;108536;1256;36233;-41
2022/07/05 00:05:55;;;;;;;12.60;11.50;;;;;;;;;;108490;1258;35281;-42
2022/07/05 00:08:28;;;;;;;12.40;11.30;;;;;;;;;;108554;1264;35978;-41
2022/07/05 00:11:00;;;;;;;11.20;10.10;;;;;;;;;;108537;1257;34747;-42
2022/07/05 00:13:33;;;;;;;10.90;10.00;;;;;;;;;;108553;1257;34541;-42
2022/07/05 00:16:06;;;;;;;11.70;10.60;;;;;;;;;;108493;1257;34335;-41
2022/07/05 00:18:40;;;;;;;12.20;11.10;;;;;;;;;;108537;1256;33537;-42
2022/07/05 00:21:14;;;;;;;11.00;10.00;;;;;;;;;;108492;1256;35348;-42
2022/07/05 00:23:47;;;;;;;11.00;10.10;;;;;;;;;;108515;1256;34363;-41
2022/07/05 00:26:21;;;;;;;11.20;10.10;;;;;;;;;;108543;1264;34221;-42
2022/07/05 00:28:53;;;;;;;11.40;10.40;;;;;;;;;;108496;1263;34208;-41
2022/07/05 00:31:26;;;;;;;10.10;9.20;;;;;;;;;;108513;1256;34353;-42
2022/07/05 00:33:58;;;;;;;11.30;10.30;;;;;;;;;;108519;1256;34754;-41
2022/07/05 00:36:31;;;;;;;10.80;9.80;;;;;;;;;;108504;1262;34130;-41
2022/07/05 00:39:04;;;;;;;11.20;10.00;;;;;;;;;;108499;1256;34659;-41
2022/07/05 00:41:37;;;;;;;10.60;9.60;;;;;;;;;;108480;1256;34321;-41
2022/07/05 00:44:13;;;;;;;10.20;9.20;;;;;;;;;;108503;1256;33867;-41
2022/07/05 00:46:47;;;;;;;9.90;8.90;;;;;;;;;;108585;1256;34723;-41
2022/07/05 00:49:20;;;;;;;10.40;9.50;;;;;;;;;;108550;1256;34248;-41
2022/07/05 00:51:55;;;;;;;10.50;9.60;;;;;;;;;;108541;1256;34417;-41
2022/07/05 00:54:26;;;;;;;;;;;;;;;;;;108551;1257;34259;-42
2022/07/05 00:56:59;;;;;;;10.10;9.10;;;;;;;;;;108555;1256;34221;-41
2022/07/05 00:59:32;;;;;;;10.50;9.50;;;;;;;;;;108591;1256;34097;-41
2022/07/05 01:02:06;;;;;;;10.30;9.30;;;;;;;;;;108515;1264;35781;-41
2022/07/05 01:04:39;;;;;;;9.50;8.60;;;;;;;;;;108562;1262;34122;-41
2022/07/05 01:07:13;;;;;;;10.20;9.30;;;;;;;;;;108501;1264;34510;-42
2022/07/05 01:09:46;;;;;;;8.90;8.10;;;;;;;;;;108493;1262;33871;-41
2022/07/05 01:12:21;;;;;;;9.70;8.80;;;;;;;;;;108513;1264;34267;-43
2022/07/05 01:14:53;;;;;;;;;;;;;;;;;;108543;1264;33766;-43
2022/07/05 01:17:26;;;;;;;10.10;9.20;;;;;;;;;;108542;1256;36009;-43
2022/07/05 01:19:58;;;;;;;10.20;9.30;;;;;;;;;;108535;1256;34214;-41
2022/07/05 01:22:47;;;;;;;9.20;8.30;;;;;;;;;;108551;1256;34247;-44
2022/07/05 01:25:20;;;;;;;9.60;8.70;;;;;;;;;;108520;1256;34614;-42
2022/07/05 01:27:52;;;;;;;;;;;;;;;;;;108559;1257;34479;-41
2022/07/05 01:30:28;;;;;;;9.90;8.90;;;;;;;;;;108561;1256;34288;-41
2022/07/05 01:33:01;;;;;;;8.90;8.10;;;;;;;;;;108553;1256;34361;-41
2022/07/05 01:35:32;;;;;;;;;;;;;;;;;;108559;1256;34324;-42
2022/07/05 01:38:06;;;;;;;9.90;9.10;;;;;;;;;;108523;1264;33685;-44
2022/07/05 01:40:43;;;;;;;10.00;9.00;;;;;;;;;;108543;1257;33665;-43
2022/07/05 01:43:16;;;;;;;9.10;8.30;;;;;;;;;;108584;1256;33831;-44
2022/07/05 01:45:50;;;;;;;9.70;8.70;;;;;;;;;;108556;1256;34343;-45
2022/07/05 01:48:24;;;;;;;9.20;8.30;;;;;;;;;;108548;1256;33722;-41
2022/07/05 01:51:02;;;;;;;9.20;8.20;;;;;;;;;;108551;1257;34231;-41
2022/07/05 01:53:36;;;;;;;8.50;7.80;;;;;;;;;;108534;1256;34272;-41
2022/07/05 01:56:09;;;;;;;9.00;8.20;;;;;;;;;;108528;1256;34272;-41
2022/07/05 01:58:42;;;;;;;8.70;7.90;;;;;;;;;;108500;1256;34374;-41
2022/07/05 02:01:15;;;;;;;9.20;8.30;;;;;;;;;;108521;1256;33725;-41
2022/07/05 02:03:48;;;;;;;9.40;8.50;;;;;;;;;;108553;1264;35919;-41
2022/07/05 02:06:20;;;;;;;9.30;8.40;;;;;;;;;;108516;1256;34934;-41
2022/07/05 02:08:53;;;;;;;8.60;7.80;;;;;;;;;;108502;1257;34534;-41
2022/07/05 02:11:26;;;;;;;8.50;7.70;;;;;;;;;;108486;1262;34392;-43
2022/07/05 02:13:59;;;;;;;8.50;7.60;;;;;;;;;;108517;1256;34111;-41
2022/07/05 02:16:32;;;;;;;8.60;7.80;;;;;;;;;;108508;1256;34327;-41
2022/07/05 02:19:05;;;;;;;8.10;7.30;;;;;;;;;;108546;1264;33693;-41
2022/07/05 02:21:42;;;;;;;9.40;7.20;;;;;;;;;;108491;1256;34194;-41
2022/07/05 02:24:15;;;;;;;8.40;7.60;;;;;;;;;;108550;1256;34175;-42
2022/07/05 02:26:47;;;;;;;8.40;7.50;;;;;;;;;;108539;1256;36088;-41
2022/07/05 02:29:20;;;;;;;8.40;7.50;;;;;;;;;;108542;1257;34487;-41
2022/07/05 02:31:53;;;;;;;8.30;7.50;;;;;;;;;;108499;1262;33679;-42
2022/07/05 02:34:26;;;;;;;8.20;7.50;;;;;;;;;;108512;1256;34263;-41
2022/07/05 02:36:58;;;;;;;8.30;7.60;;;;;;;;;;108524;1257;34457;-41
2022/07/05 02:39:33;;;;;;;8.00;7.20;;;;;;;;;;108541;1264;33703;-43
2022/07/05 02:42:06;;;;;;;8.50;7.70;;;;;;;;;;108532;1256;34302;-41
2022/07/05 02:44:39;;;;;;;11.00;7.90;;;;;;;;;;108540;1256;33687;-41
2022/07/05 02:47:11;;;;;;;8.50;7.10;;;;;;;;;;108535;1264;34800;-41
2022/07/05 02:49:43;;;;;;;7.90;7.10;;;;;;;;;;108537;1256;33725;-41
2022/07/05 02:52:16;;;;;;;8.60;7.60;;;;;;;;;;108522;1256;35865;-41
2022/07/05 02:54:50;;;;;;;7.50;6.80;;;;;;;;;;108499;1256;33624;-41
2022/07/05 02:57:26;;;;;;;9.90;7.10;;;;;;;;;;108553;1256;34614;-42
2022/07/05 02:59:58;;;;;;;7.60;6.90;;;;;;;;;;108534;1256;34321;-42
2022/07/05 03:02:34;;;;;;;8.40;7.50;;;;;;;;;;108497;1256;34714;-41
2022/07/05 03:05:11;;;;;;;7.20;6.50;;;;;;;;;;108491;1264;33637;-41
2022/07/05 03:07:44;;;;;;;7.50;6.80;;;;;;;;;;108512;1264;34179;-41
2022/07/05 03:10:16;;;;;;;8.00;6.80;;;;;;;;;;108505;1264;34526;-42
2022/07/05 03:12:50;;;;;;;7.70;6.50;;;;;;;;;;108484;1256;33666;-41
2022/07/05 03:15:23;;;;;;;7.60;6.90;;;;;;;;;;108514;1256;34214;-42
2022/07/05 03:17:55;;;;;;;7.60;6.60;;;;;;;;;;108479;1264;34209;-41
2022/07/05 03:20:28;;;;;;;7.20;6.50;;;;;;;;;;108506;1256;34312;-41
2022/07/05 03:23:00;;;;;;;7.40;6.70;;;;;;;;;;108472;1258;36040;-42
2022/07/05 03:25:33;;;;;;;7.10;5.90;;;;;;;;;;108504;1256;34643;-43
2022/07/05 03:28:06;;;;;;;6.70;6.00;;;;;;;;;;108480;1256;34404;-43
2022/07/05 03:30:39;;;;;;;6.40;5.80;;;;;;;;;;108499;1256;34350;-41
2022/07/05 03:33:11;;;;;;;8.30;5.90;;;;;;;;;;108484;1256;34326;-45
2022/07/05 03:35:43;;;;;;;6.30;5.70;;;;;;;;;;108498;1256;35394;-42
2022/07/05 03:38:16;;;;;;;6.20;5.60;;;;;;;;;;108500;1256;34717;-41
2022/07/05 03:40:49;;;;;;;6.10;5.50;;;;;;;;;;108513;1256;36207;-41
2022/07/05 03:43:21;;;;;;;7.30;5.90;;;;;;;;;;108510;1256;34524;-42
2022/07/05 03:45:56;;;;;;;8.60;6.00;;;;;;;;;;108473;1256;33513;-41
2022/07/05 03:48:29;;;;;;;6.80;5.60;;;;;;;;;;108502;1256;33835;-41
2022/07/05 03:51:07;;;;;;;7.70;5.80;;;;;;;;;;108056;1264;520963;-42
2022/07/05 03:53:39;;;;;;;6.70;6.00;;;;;;;;;;108503;1256;34559;-42
2022/07/05 03:56:12;;;;;;;9.40;5.20;;;;;;;;;;108497;1256;34320;-41
2022/07/05 03:58:45;;;;;;;10.20;5.50;;;;;;;;;;108513;1256;34687;-41
2022/07/05 04:01:18;;;;;;;6.50;5.40;;;;;;;;;;108505;1256;34160;-41
2022/07/05 04:03:50;;;;;;;9.90;5.30;;;;;;;;;;108439;1256;34292;-41
2022/07/05 04:06:24;;;;;;;8.60;5.40;;;;;;;;;;108475;1256;34086;-42
2022/07/05 04:08:57;;;;;;;14.20;5.80;;;;;;;;;;108521;1256;34017;-42
2022/07/05 04:11:29;;;;;;;7.00;5.30;;;;;;;;;;108505;1256;34010;-41
2022/07/05 04:14:02;;;;;;;9.80;5.30;;;;;;;;;;108496;1256;34333;-41
2022/07/05 04:16:34;;;;;;;9.70;4.90;;;;;;;;;;108490;1264;34507;-41
2022/07/05 04:19:08;;;;;;;9.70;5.50;;;;;;;;;;108500;1257;33824;-41
2022/07/05 04:21:40;;;;;;;8.90;5.40;;;;;;;;;;108572;1256;34227;-43
2022/07/05 04:24:13;;;;;;;9.60;5.70;;;;;;;;;;108547;1256;34972;-42
2022/07/05 04:26:46;;;;;;;11.10;5.20;;;;;;;;;;108531;1256;34188;-41
2022/07/05 04:29:21;;;;;;;8.90;5.40;;;;;;;;;;108513;1256;34401;-41
2022/07/05 04:31:54;;;;;;;10.60;5.30;;;;;;;;;;108540;1256;34427;-41
2022/07/05 04:34:29;;;;;;;7.80;5.10;;;;;;;;;;108522;1256;34499;-42
2022/07/05 04:37:05;;;;;;;10.50;4.70;;;;;;;;;;108532;1257;34343;-41
2022/07/05 04:39:37;;;;;;;9.20;5.00;;;;;;;;;;108510;1256;34276;-41
2022/07/05 04:42:13;;;;;;;10.00;4.30;;;;;;;;;;108510;1256;34279;-43
2022/07/05 04:44:47;;;;;;;8.90;4.40;;;;;;;;;;108488;1256;34484;-42
2022/07/05 04:47:17;;;;;;;;;;;;;;;;;;108500;1264;33663;-41
2022/07/05 04:49:51;;;;;;;9.00;4.70;;;;;;;;;;108517;1256;35946;-41
2022/07/05 04:52:23;;;;;;;8.80;5.10;;;;;;;;;;108496;1256;34219;-42
2022/07/05 04:54:56;;;;;;;13.50;4.70;;;;;;;;;;108484;1264;33735;-42
2022/07/05 04:57:28;;;;;;;10.20;5.10;;;;;;;;;;108504;1256;34284;-41
2022/07/05 05:00:01;;;;;;;10.90;4.50;;;;;;;;;;108488;1256;34273;-41
2022/07/05 05:02:35;;;;;;;8.70;4.70;;;;;;;;;;108541;1256;34272;-42
2022/07/05 05:05:10;;;;;;;6.80;4.20;;;;;;;;;;108513;1256;33778;-43
2022/07/05 05:07:46;;;;;;;9.30;4.50;;;;;;;;;;108540;1264;34472;-42
2022/07/05 05:10:18;;;;;;;7.10;4.40;;;;;;;;;;108479;1256;34217;-43
2022/07/05 05:12:50;;;;;;;7.90;4.20;;;;;;;;;;108505;1256;34336;-42
2022/07/05 05:15:25;;;;;;;8.40;4.20;;;;;;;;;;108495;1256;34920;-41
2022/07/05 05:17:58;;;;;;;7.70;4.40;;;;;;;;;;108471;1256;34742;-42
2022/07/05 05:20:30;;;;;;;;;;;;;;;;;;108490;1258;34301;-45
2022/07/05 05:23:03;;;;;;;12.80;4.40;;;;;;;;;;108458;1256;35899;-41
2022/07/05 05:25:36;;;;;;;9.60;4.40;;;;;;;;;;108516;1256;34449;-43
2022/07/05 05:28:10;;;;;;;13.10;5.00;;;;;;;;;;108493;1264;34093;-41
2022/07/05 05:30:43;;;;;;;8.60;4.30;;;;;;;;;;108529;1264;34000;-42
2022/07/05 05:33:15;;;;;;;8.90;4.50;;;;;;;;;;108519;1256;33817;-41
2022/07/05 05:35:49;;;;;;;8.80;4.30;;;;;;;;;;108538;1256;34129;-42
2022/07/05 05:38:21;;;;;;;10.10;4.40;;;;;;;;;;108495;1256;34229;-42
2022/07/05 05:40:53;;;;;;;8.90;4.50;;;;;;;;;;108517;1256;34054;-42
2022/07/05 05:43:26;;;;;;;9.00;4.60;;;;;;;;;;108496;1256;34295;-42
2022/07/05 05:45:58;;;;;;;6.60;4.20;;;;;;;;;;108482;1256;36022;-41
2022/07/05 05:48:30;;;;;;;10.10;4.40;;;;;;;;;;108504;1256;35985;-41
2022/07/05 05:51:08;;;;;;;8.60;4.60;;;;;;;;;;108478;1256;33847;-43
2022/07/05 05:53:40;;;;;;;12.00;5.20;;;;;;;;;;108485;1256;34376;-42
2022/07/05 05:56:13;;;;;;;9.20;6.00;;;;;;;;;;108470;1264;35859;-42
2022/07/05 05:58:46;;;;;;;10.00;6.30;;;;;;;;;;108457;1256;33811;-42
2022/07/05 06:01:19;;;;;;;12.60;6.60;;;;;;;;;;108491;1257;34016;-41
2022/07/05 06:03:52;;;;;;;12.70;6.70;;;;;;;;;;108464;1257;34522;-41
2022/07/05 06:06:26;;;;;;;13.10;6.80;;;;;;;;;;108501;1258;33704;-41
2022/07/05 06:08:58;;;;;;;16.20;6.70;;;;;;;;;;108485;1256;34864;-42
2022/07/05 06:11:31;;;;;;;16.60;6.90;;;;;;;;;;108524;1256;34466;-41
2022/07/05 06:14:04;;;;;;;11.20;5.60;;;;;;;;;;108499;1256;35404;-41
2022/07/05 06:16:36;;;;;;;17.00;6.90;;;;;;;;;;108494;1256;34442;-43
2022/07/05 06:19:09;;;;;;;12.00;6.10;;;;;;;;;;108546;1256;34347;-41
2022/07/05 06:21:41;;;;;;;11.30;5.60;;;;;;;;;;108443;1257;34131;-41
2022/07/05 06:24:14;;;;;;;14.90;6.00;;;;;;;;;;108514;1256;34285;-42
2022/07/05 06:26:47;;;;;;;13.50;6.10;;;;;;;;;;108498;1256;33741;-42
2022/07/05 06:29:20;;;;;;;15.50;6.60;;;;;;;;;;108522;1256;34213;-42
2022/07/05 06:31:52;;;;;;;15.90;5.60;;;;;;;;;;108491;1256;34262;-41
2022/07/05 06:34:25;;;;;;;11.00;5.20;;;;;;;;;;108503;1256;33692;-41
2022/07/05 06:36:57;;;;;;;10.20;5.70;;;;;;;;;;108470;1256;34262;-41
2022/07/05 06:39:30;;;;;;;13.10;5.60;;;;;;;;;;108492;1256;34201;-41
2022/07/05 06:42:03;;;;;;;9.50;4.80;;;;;;;;;;108510;1256;34194;-42
2022/07/05 06:44:35;;;;;;;10.20;4.80;;;;;;;;;;108478;1256;37712;-42
2022/07/05 06:47:07;;;;;;;13.00;5.20;;;;;;;;;;108476;1264;34269;-41
2022/07/05 06:49:40;;;;;;;10.60;4.90;;;;;;;;;;108490;1264;34220;-42
2022/07/05 06:52:12;;;;;;;14.60;5.10;;;;;;;;;;108477;1256;34934;-42
2022/07/05 06:54:45;;;;;;;12.70;5.80;;;;;;;;;;108511;1256;34171;-42
2022/07/05 06:57:21;;;;;;;11.30;5.30;;;;;;;;;;108499;1256;34400;-42
2022/07/05 06:59:54;;;;;;;10.00;5.80;;;;;;;;;;108487;1256;34315;-41
2022/07/05 07:02:29;;;;;;;10.40;5.70;;;;;;;;;;108469;1256;34273;-42
2022/07/05 07:05:02;;;;;;;9.90;5.60;;;;;;;;;;108479;1264;33778;-41
2022/07/05 07:10:26;;;;;;;13.60;5.80;;;;;;;;;;108491;1256;34696;-42
2022/07/05 07:13:02;;;;;;;13.40;5.00;;;;;;;;;;108494;1264;34575;-41
2022/07/05 07:15:34;;;;;;;13.20;5.20;;;;;;;;;;108456;1256;34260;-43
2022/07/05 07:18:07;;;;;;;12.50;5.00;;;;;;;;;;108516;1256;34323;-42
2022/07/05 07:20:40;;;;;;;15.90;5.50;;;;;;;;;;108498;1256;35974;-42
2022/07/05 07:23:13;;;;;;;11.00;5.90;;;;;;;;;;108478;1256;34235;-42
2022/07/05 07:25:48;;;;;;;8.80;4.80;;;;;;;;;;108525;1264;34327;-41
2022/07/05 07:28:20;;;;;;;14.80;5.20;;;;;;;;;;108496;1264;34371;-42
2022/07/05 07:30:52;;;;;;;7.80;4.70;;;;;;;;;;108497;1264;33740;-42
2022/07/05 07:33:26;;;;;;;8.90;4.90;;;;;;;;;;108494;1256;34175;-43
2022/07/05 07:36:01;;;;;;;8.70;4.80;;;;;;;;;;108523;1256;34369;-42
2022/07/05 07:38:33;;;;;;;8.80;5.50;;;;;;;;;;108525;1256;34269;-42
2022/07/05 07:41:06;;;;;;;7.40;4.90;;;;;;;;;;108509;1256;34546;-43
2022/07/05 07:43:39;;;;;;;7.40;4.50;;;;;;;;;;108507;1263;34427;-42
2022/07/05 07:46:12;;;;;;;7.60;5.40;;;;;;;;;;108459;1256;36622;-42
2022/07/05 07:48:44;;;;;;;8.50;5.60;;;;;;;;;;108521;1256;34357;-43
2022/07/05 07:51:21;;;;;;;9.10;7.10;;;;;;;;;;108535;1256;33729;-42
2022/07/05 07:53:53;;;;;;;8.40;5.30;;;;;;;;;;108501;1257;34584;-42
2022/07/05 07:56:29;;;;;;;7.70;5.50;;;;;;;;;;108482;1256;34482;-42
2022/07/05 07:59:00;;;;;;;;;;;;;;;;;;108523;1264;34680;-41
2022/07/05 08:01:33;;;;;;;8.90;5.60;;;;;;;;;;108471;1256;34274;-42
2022/07/05 08:04:07;;;;;;;8.00;5.70;;;;;;;;;;108479;1256;34283;-42
2022/07/05 08:06:41;;;;;;;6.90;5.40;;;;;;;;;;108535;1256;33808;-42
2022/07/05 08:09:14;;;;;;;6.30;4.90;;;;;;;;;;108510;1256;34444;-42
2022/07/05 08:11:47;;;;;;;8.80;6.10;;;;;;;;;;108453;1256;34183;-40
2022/07/05 08:14:21;;;;;;;8.30;5.00;;;;;;;;;;108494;1256;34954;-41
2022/07/05 08:16:54;;;;;;;8.10;5.20;;;;;;;;;;108489;1264;34220;-41
2022/07/05 08:22:19;;;;;;;7.10;4.90;;;;;;;;;;108465;1256;35909;-41
2022/07/05 08:24:51;;;;;;;7.30;5.10;;;;;;;;;;108546;1256;35247;-41
2022/07/05 08:27:28;;;;;;;6.60;4.80;;;;;;;;;;108495;1256;34195;-41
2022/07/05 08:30:06;;;;;;;9.10;4.90;;;;;;;;;;108495;1256;34210;-42
2022/07/05 08:32:39;;;;;;;8.40;5.00;;;;;;;;;;108490;1256;35091;-42
2022/07/05 08:35:12;;;;;;;5.50;4.60;;;;;;;;;;108489;1263;34163;-42
2022/07/05 08:37:43;;;;;;;;;;;;;;;;;;108509;1264;33738;-43
2022/07/05 08:40:17;;;;;;;5.60;4.30;;;;;;;;;;108494;1256;34365;-43
2022/07/05 08:42:52;;;;;;;8.60;4.50;;;;;;;;;;108486;1256;34488;-43
2022/07/05 08:45:26;;;;;;;6.00;4.80;;;;;;;;;;108495;1264;34503;-43
2022/07/05 08:48:00;;;;;;;5.80;4.80;;;;;;;;;;108486;1256;33850;-41
2022/07/05 08:50:41;;;;;;;6.40;5.20;;;;;;;;;;108477;1256;34251;-37
2022/07/05 08:53:15;;;;;;;6.00;4.70;;;;;;;;;;108470;1256;34092;-38
2022/07/05 08:55:47;;;;;;;6.20;4.70;;;;;;;;;;108449;1259;34277;-40
2022/07/05 08:58:20;;;;;;;6.90;5.00;;;;;;;;;;108452;1260;34976;-40
2022/07/05 09:00:54;;;;;;;6.70;4.50;;;;;;;;;;108483;1256;34534;-42
2022/07/05 09:03:34;;;;;;;6.40;5.00;;;;;;;;;;108474;1265;35912;-38
2022/07/05 09:06:10;;;;;;;5.30;4.50;;;;;;;;;;108495;1259;34743;-35
2022/07/05 09:08:46;;;;;;;5.70;4.20;;;;;;;;;;108462;1258;34305;-40
2022/07/05 09:11:20;;;;;;;5.80;4.30;;;;;;;;;;108488;1259;35098;-38
2022/07/05 09:13:54;;;;;;;7.10;4.80;;;;;;;;;;108452;1258;34314;-39
2022/07/05 09:16:26;;;;;;;6.60;4.60;;;;;;;;;;108470;1259;34281;-36
2022/07/05 09:19:05;;;;;;;5.00;4.20;;;;;;;;;;108529;1259;34045;-36
2022/07/05 09:21:38;;;;;;;5.70;4.20;;;;;;;;;;108497;1259;34247;-35
2022/07/05 09:24:14;;;;;;;5.80;4.80;;;;;;;;;;108451;1257;34334;-36
2022/07/05 09:26:48;;;;;;;4.60;4.00;;;;;;;;;;108485;1256;34316;-34
2022/07/05 09:29:22;;;;;;;5.00;4.20;;;;;;;;;;108486;1259;33736;-37
2022/07/05 09:31:55;;;;;;;5.50;4.50;;;;;;;;;;108486;1264;35936;-36
2022/07/05 09:34:29;;;;;;;6.10;4.30;;;;;;;;;;108500;1256;34247;-36
2022/07/05 09:37:05;;;;;;;6.70;4.60;;;;;;;;;;108483;1256;34536;-35
2022/07/05 09:39:44;;;;;;;6.30;4.40;;;;;;;;;;108527;1256;33165;-34
2022/07/05 09:42:24;;;;;;;5.50;4.20;;;;;;;;;;108463;1256;34390;-34
2022/07/05 09:44:59;;;;;;;5.50;4.10;;;;;;;;;;108483;1256;34062;-36
2022/07/05 09:47:32;;;;;;;8.00;4.30;;;;;;;;;;108482;1256;32838;-34
2022/07/05 09:50:07;;;;;;;5.30;4.10;;;;;;;;;;108485;1264;34276;-35
2022/07/05 09:52:41;;;;;;;5.70;4.50;;;;;;;;;;108465;1256;34465;-38
2022/07/05 09:55:16;;;;;;;5.60;4.10;;;;;;;;;;108477;1256;34394;-38
2022/07/05 09:57:50;;;;;;;4.80;4.00;;;;;;;;;;108507;1256;33912;-37
2022/07/05 10:00:25;;;;;;;4.50;4.00;;;;;;;;;;108460;1265;35319;-37
2022/07/05 10:03:00;;;;;;;5.50;4.10;;;;;;;;;;108466;1256;33879;-35
2022/07/05 10:05:34;;;;;;;5.50;3.90;;;;;;;;;;108476;1256;34283;-35
2022/07/05 10:08:07;;;;;;;4.60;3.70;;;;;;;;;;108496;1256;34183;-36
2022/07/05 10:10:41;;;;;;;7.00;4.40;;;;;;;;;;108488;1256;33939;-38
2022/07/05 10:13:11;;;;;;;;;;;;;;;;;;108520;1264;33842;-39
2022/07/05 10:15:49;;;;;;;5.30;4.40;;;;;;;;;;108496;1256;34736;-39
2022/07/05 10:18:31;;;;;;;5.20;4.10;;;;;;;;;;108541;1256;34299;-39
2022/07/05 10:21:05;;;;;;;6.10;4.00;;;;;;;;;;108452;1256;34219;-36
2022/07/05 10:23:38;;;;;;;4.50;4.00;;;;;;;;;;108590;1256;34797;-36
2022/07/05 10:26:10;;;;;;;;;;;;;;;;;;108505;1256;34352;-39
2022/07/05 10:28:47;;;;;;;5.00;3.90;;;;;;;;;;108489;1256;35794;-39
2022/07/05 10:31:23;;;;;;;4.90;3.70;;;;;;;;;;108486;1256;34352;-40
2022/07/05 10:33:57;;;;;;;5.40;4.10;;;;;;;;;;108469;1257;33840;-34
2022/07/05 10:36:28;;;;;;;;;;;;;;;;;;108538;1264;34107;-42
2022/07/05 10:39:00;;;;;;;6.00;4.00;;;;;;;;;;108554;1259;34353;-42
2022/07/05 10:41:33;;;;;;;5.30;4.00;;;;;;;;;;108472;1257;34480;-37
2022/07/05 10:44:07;;;;;;;4.90;3.60;;;;;;;;;;108468;1258;36538;-35
2022/07/05 10:46:43;;;;;;;4.50;3.80;;;;;;;;;;108522;1256;33758;-41
2022/07/05 10:49:25;;;;;;;5.70;4.00;;;;;;;;;;108495;1264;33804;-36
2022/07/05 10:51:57;;;;;;;4.90;3.90;;;;;;;;;;108468;1256;33741;-36
2022/07/05 10:54:28;;;;;;;;;;;;;;;;;;108502;1264;33808;-39
2022/07/05 10:57:26;;;;;;;4.50;3.80;;;;;;;;;;108490;1256;33507;-38
2022/07/05 11:00:17;;;;;;;4.30;3.70;;;;;;;;;;108483;1256;35872;-38
2022/07/05 11:03:09;;;;;;;5.80;3.70;;;;;;;;;;108471;1256;34272;-38
2022/07/05 11:05:41;;;;;;;4.80;3.80;;;;;;;;;;108494;1256;33809;-38
2022/07/05 11:08:14;;;;;;;5.50;3.50;;;;;;;;;;108459;1257;34440;-38
2022/07/05 11:11:15;;;;;;;5.20;3.50;;;;;;;;;;108460;1256;34171;-36
2022/07/05 11:13:48;;;;;;;5.90;3.90;;;;;;;;;;108507;1256;33623;-35
2022/07/05 11:16:32;;;;;;;4.20;3.50;;;;;;;;;;108479;1256;34216;-35
2022/07/05 11:19:12;;;;;;;7.40;3.70;;;;;;;;;;108506;1261;34104;-40
2022/07/05 11:22:03;;;;;;;5.20;3.60;;;;;;;;;;108526;1256;35282;-40
2022/07/05 11:24:37;;;;;;;4.20;3.60;;;;;;;;;;108497;1256;34376;-35
2022/07/05 11:27:15;;;;;;;4.80;3.30;;;;;;;;;;108471;1256;33825;-40
2022/07/05 11:29:49;;;;;;;4.70;3.50;;;;;;;;;;108498;1259;34204;-39
2022/07/05 11:32:24;;;;;;;4.70;3.40;;;;;;;;;;108479;1256;34340;-36
2022/07/05 11:35:13;;;;;;;5.30;3.40;;;;;;;;;;108505;1256;34735;-38
2022/07/05 11:38:09;;;;;;;5.20;3.50;;;;;;;;;;108455;1265;33660;-42
2022/07/05 11:40:42;;;;;;;4.60;3.30;;;;;;;;;;108478;1262;35793;-38
2022/07/05 11:43:14;;;;;;;4.60;3.60;;;;;;;;;;108491;1256;34268;-40
2022/07/05 11:45:50;;;;;;;4.50;3.50;;;;;;;;;;108449;1256;34324;-38
2022/07/05 11:48:22;;;;;;;4.30;3.10;;;;;;;;;;108496;1256;34238;-38
2022/07/05 11:50:55;;;;;;;4.90;3.70;;;;;;;;;;108442;1264;36037;-36
2022/07/05 11:53:33;;;;;;;4.20;3.30;;;;;;;;;;108127;1264;428622;-36
2022/07/05 11:56:09;;;;;;;4.40;3.30;;;;;;;;;;108479;1257;34337;-35
2022/07/05 11:58:42;;;;;;;5.50;3.50;;;;;;;;;;108506;1261;34010;-34
2022/07/05 12:01:14;;;;;;;5.00;3.10;;;;;;;;;;108475;1256;34193;-42
2022/07/05 12:03:58;;;;;;;6.80;3.40;;;;;;;;;;108512;1264;33719;-38
2022/07/05 12:06:33;;;;;;;5.00;3.20;;;;;;;;;;108488;1256;33933;-37
2022/07/05 12:09:09;;;;;;;4.90;3.60;;;;;;;;;;108519;1256;34854;-38
2022/07/05 12:14:32;;;;;;;4.50;3.30;;;;;;;;;;108496;1256;34181;-37
2022/07/05 12:17:20;;;;;;;5.00;3.30;;;;;;;;;;108513;1256;34288;-37
2022/07/05 12:19:53;;;;;;;4.80;3.60;;;;;;;;;;108549;1259;34198;-38
2022/07/05 12:22:35;;;;;;;4.10;3.10;;;;;;;;;;108523;1264;34190;-38
2022/07/05 12:25:13;;;;;;;4.40;3.40;;;;;;;;;;108508;1263;33936;-37
2022/07/05 12:27:49;;;;;;;4.30;3.30;;;;;;;;;;108531;1256;34478;-37
2022/07/05 12:30:22;;;;;;;5.30;3.00;;;;;;;;;;108494;1256;33749;-37
2022/07/05 12:33:05;;;;;;;3.80;2.80;;;;;;;;;;108585;1264;33685;-37
2022/07/05 12:35:41;;;;;;;4.30;3.20;;;;;;;;;;108514;1264;34600;-37
2022/07/05 12:38:18;;;;;;;4.20;3.20;;;;;;;;;;108560;1256;34442;-37
2022/07/05 12:41:01;;;;;;;4.60;3.30;;;;;;;;;;108523;1264;33735;-38
2022/07/05 12:43:33;;;;;;;5.30;3.00;;;;;;;;;;108491;1257;34254;-37
2022/07/05 12:46:08;;;;;;;4.70;3.30;;;;;;;;;;108502;1256;34181;-37
2022/07/05 12:48:45;;;;;;;4.30;3.60;;;;;;;;;;108512;1258;34124;-35
2022/07/05 12:51:34;;;;;;;4.40;3.30;;;;;;;;;;108509;1256;34029;-38
2022/07/05 13:00:08;;;;;;;4.00;3.20;;;;;;;;;;108521;1256;34319;-37
2022/07/05 13:02:43;;;;;;;5.10;3.30;;;;;;;;;;108563;1264;34632;-35
2022/07/05 13:05:25;;;;;;;4.10;3.20;;;;;;;;;;108510;1257;34431;-35
2022/07/05 13:08:00;;;;;;;4.10;3.10;;;;;;;;;;108481;1264;33830;-38
2022/07/05 13:10:36;;;;;;;4.90;3.00;;;;;;;;;;108513;1256;34164;-41
2022/07/05 13:13:08;;;;;;;4.70;3.00;;;;;;;;;;108499;1264;33945;-37
2022/07/05 13:15:41;;;;;;;6.10;3.00;;;;;;;;;;108482;1262;34613;-36
2022/07/05 13:18:12;;;;;;;;;;;;;;;;;;108557;1264;33669;-41
2022/07/05 13:20:45;;;;;;;4.30;2.60;;;;;;;;;;108530;1256;34147;-40
2022/07/05 13:23:17;;;;;;;5.20;2.80;;;;;;;;;;108524;1256;35122;-41
2022/07/05 13:25:52;;;;;;;3.90;2.70;;;;;;;;;;108529;1262;34210;-39
2022/07/05 13:28:25;;;;;;;4.20;2.80;;;;;;;;;;108529;1261;34762;-38
2022/07/05 13:30:57;;;;;;;4.20;2.60;;;;;;;;;;108496;1263;33551;-39
2022/07/05 13:33:29;;;;;;;3.80;2.50;;;;;;;;;;108492;1256;34427;-39
2022/07/05 13:36:04;;;;;;;5.40;2.60;;;;;;;;;;108467;1256;33788;-40
2022/07/05 13:38:37;;;;;;;8.00;2.70;;;;;;;;;;108546;1257;34695;-37
2022/07/05 13:41:09;;;;;;;4.30;2.40;;;;;;;;;;108544;1257;33807;-35
2022/07/05 13:43:44;;;;;;;6.40;2.90;;;;;;;;;;108525;1256;33623;-38
2022/07/05 13:46:23;;;;;;;6.50;2.90;;;;;;;;;;108511;1262;33707;-34
2022/07/05 13:48:56;;;;;;;4.50;2.40;;;;;;;;;;108542;1257;33894;-36
2022/07/05 13:51:28;;;;;;;3.60;2.10;;;;;;;;;;108490;1256;34210;-47
2022/07/05 13:54:03;;;;;;;4.40;2.20;;;;;;;;;;108500;1257;34142;-38
2022/07/05 13:56:36;;;;;;;4.70;2.30;;;;;;;;;;108511;1262;33924;-37
2022/07/05 13:59:09;;;;;;;4.70;2.50;;;;;;;;;;108520;1262;35928;-38
2022/07/05 14:01:43;;;;;;;5.30;2.20;;;;;;;;;;108507;1257;33583;-39
2022/07/05 14:04:15;;;;;;;5.40;2.40;;;;;;;;;;108528;1258;34188;-39
2022/07/05 14:06:50;;;;;;;5.90;2.50;;;;;;;;;;108543;1265;34372;-36
2022/07/05 14:09:26;;;;;;;6.30;2.30;;;;;;;;;;108518;1256;34229;-35
2022/07/05 14:11:59;;;;;;;6.20;2.80;;;;;;;;;;108489;1260;35878;-36
2022/07/05 14:14:32;;;;;;;6.20;2.80;;;;;;;;;;108505;1265;35821;-35
2022/07/05 14:17:05;;;;;;;5.50;2.40;;;;;;;;;;108529;1260;34136;-36
2022/07/05 14:19:39;;;;;;;;;;;;;;;;;;108389;1263;34290;-36
2022/07/05 14:22:15;;;;;;;6.10;2.90;;;;;;;;;;108345;1257;34185;-36
2022/07/05 14:24:48;;;;;;;6.20;2.30;;;;;;;;;;108333;1259;34161;-36
2022/07/05 14:27:23;;;;;;;4.70;2.20;;;;;;;;;;108363;1262;34275;-36
2022/07/05 14:30:00;;;;;;;4.50;2.00;;;;;;;;;;108363;1259;34475;-36
2022/07/05 14:32:35;;;;;;;4.40;2.50;;;;;;;;;;108345;1257;34769;-36
2022/07/05 14:35:11;;;;;;;5.00;2.10;;;;;;;;;;108425;1262;35706;-36
2022/07/05 14:37:47;;;;;;;3.60;1.80;;;;;;;;;;108535;1258;34401;-36
2022/07/05 14:40:23;;;;;;;5.30;2.40;;;;;;;;;;108516;1262;34313;-36
2022/07/05 14:42:57;;;;;;;4.80;2.30;;;;;;;;;;108582;1266;33825;-36
2022/07/05 14:45:31;;;;;;;4.70;2.30;;;;;;;;;;108395;1263;35797;-36
2022/07/05 14:48:06;;;;;;;4.20;2.20;;;;;;;;;;108542;1262;36132;-36
2022/07/05 14:50:38;;;;;;;5.50;2.40;;;;;;;;;;108479;1257;34492;-37
2022/07/05 14:53:11;;;;;;;4.50;2.10;;;;;;;;;;108514;1256;33714;-34
2022/07/05 14:55:44;;;;;;;4.50;2.30;;;;;;;;;;108517;1259;34388;-35
2022/07/05 14:58:17;;;;;;;6.20;2.40;;;;;;;;;;108531;1258;34070;-35
2022/07/05 15:00:49;;;;;;;3.50;1.90;;;;;;;;;;108523;1263;34403;-35
2022/07/05 15:03:23;;;;;;;3.10;1.90;;;;;;;;;;108516;1257;34200;-35
2022/07/05 15:05:56;;;;;;;5.50;2.50;;;;;;;;;;108528;1263;34379;-38
2022/07/05 15:08:30;;;;;;;4.00;2.50;;;;;;;;;;108493;1257;34728;-35
2022/07/05 15:11:04;;;;;;;5.50;2.50;;;;;;;;;;108493;1257;34187;-38
2022/07/05 15:13:37;;;;;;;4.10;2.30;;;;;;;;;;108477;1258;34797;-39
2022/07/05 15:16:13;;;;;;;4.50;2.50;;;;;;;;;;108455;1258;34433;-38
2022/07/05 15:18:45;;;;;;;5.20;2.50;;;;;;;;;;108502;1258;35279;-38
2022/07/05 15:21:17;;;;;;;4.60;2.80;;;;;;;;;;108457;1264;34118;-39
2022/07/05 15:23:49;;;;;;;4.20;2.30;;;;;;;;;;108512;1258;33733;-37
2022/07/05 15:26:24;;;;;;;6.70;2.80;;;;;;;;;;108483;1263;34155;-39